Time;durP1;ratioP1;P1;durP2;ratioP2;P2;SDS_P1;SDS_P2;PMS_P1;PMS_P2;Temp;Humidity;BMP_temperature;BMP_pressure;BME280_temperature;BME280_humidity;BME280_pressure;Samples;Min_cycle;Max_cycle;Signal;HPM_P1;HPM_P2
2021/03/26 00:00:29;;;;;;;75.47;34.73;;;;;;;0.76;48.90;100650.24;1796103;79;21048;-54
2021/03/26 00:02:53;;;;;;;92.62;42.03;;;;;;;0.75;48.97;100649.92;1797047;79;21335;-52
2021/03/26 00:05:21;;;;;;;88.20;39.67;;;;;;;0.77;49.40;100651.06;1796752;79;21629;-52
2021/03/26 00:10:33;;;;;;;106.47;47.23;;;;;;;0.78;49.70;100665.73;1845211;76;22900;-52
2021/03/26 00:13:05;;;;;;;101.85;46.60;;;;;;;0.73;49.63;100663.31;1815614;78;21797;-52
2021/03/26 00:15:40;;;;;;;100.92;43.55;;;;;;;0.72;49.96;100665.73;1815532;78;21088;-52
2021/03/26 00:18:11;;;;;;;91.20;40.80;;;;;;;0.67;50.05;100657.70;1815524;79;21021;-52
2021/03/26 00:20:41;;;;;;;86.42;40.58;;;;;;;0.65;50.25;100661.11;1814830;78;21025;-51
2021/03/26 00:23:12;;;;;;;78.95;43.00;;;;;;;0.60;50.58;100655.49;1784767;78;21017;-52
2021/03/26 00:25:47;;;;;;;81.28;40.28;;;;;;;0.57;50.81;100663.98;1783496;79;21571;-52
2021/03/26 00:28:17;;;;;;;84.97;43.98;;;;;;;0.52;50.76;100658.36;1782975;80;21599;-52
2021/03/26 00:30:48;;;;;;;80.42;39.70;;;;;;;0.47;50.63;100662.17;1783421;80;21019;-51
2021/03/26 00:33:16;;;;;;;68.90;40.35;;;;;;;0.46;50.46;100661.88;1783307;80;20997;-51
2021/03/26 00:35:46;;;;;;;66.50;38.73;;;;;;;0.47;50.14;100664.37;1783062;80;21045;-52
2021/03/26 00:38:16;;;;;;;71.05;37.50;;;;;;;0.47;50.27;100671.14;1783013;80;21053;-52
2021/03/26 00:40:44;;;;;;;80.85;44.30;;;;;;;0.44;50.46;100672.86;1783132;80;21202;-52
2021/03/26 00:43:23;;;;;;;73.28;40.73;;;;;;;0.41;50.39;100662.45;1782954;80;21061;-52
2021/03/26 00:45:51;;;;;;;76.50;39.63;;;;;;;0.39;50.74;100662.37;1782794;79;21056;-52
2021/03/26 00:48:20;;;;;;;64.80;33.67;;;;;;;0.38;51.11;100671.50;1782999;80;21616;-51
2021/03/26 00:50:59;;;;;;;72.25;38.92;;;;;;;0.34;51.42;100665.15;1783122;80;21054;-51
2021/03/26 00:53:36;;;;;;;69.12;39.75;;;;;;;0.36;50.57;100665.44;1783283;80;21249;-51
2021/03/26 00:56:09;;;;;;;56.83;33.13;;;;;;;0.40;50.72;100662.66;1783319;80;27429;-52
2021/03/26 00:58:40;;;;;;;52.78;28.83;;;;;;;0.42;50.51;100665.48;1783175;80;21523;-51
2021/03/26 01:01:15;;;;;;;54.95;29.50;;;;;;;0.45;50.25;100666.43;1753778;80;21793;-52
2021/03/26 01:03:46;;;;;;;41.83;24.35;;;;;;;0.44;50.17;100666.63;1783494;80;21644;-52
2021/03/26 01:06:24;;;;;;;50.10;23.87;;;;;;;0.42;50.21;100671.42;1783147;80;21064;-52
2021/03/26 01:08:50;;;;;;;48.13;24.47;;;;;;;0.46;49.79;100674.05;1782547;79;21140;-52
2021/03/26 01:11:27;;;;;;;46.37;24.30;;;;;;;0.48;49.91;100670.61;1782837;80;21591;-51
2021/03/26 01:14:00;;;;;;;37.83;21.80;;;;;;;0.49;49.74;100681.22;1752439;80;21635;-51
2021/03/26 01:16:31;;;;;;;43.13;21.77;;;;;;;0.49;49.80;100673.64;1782944;80;21041;-51
2021/03/26 01:19:06;;;;;;;38.98;21.25;;;;;;;0.48;50.26;100676.84;1783264;79;21483;-52
2021/03/26 01:21:38;;;;;;;34.83;20.08;;;;;;;0.47;49.74;100671.14;1782774;79;21053;-52
2021/03/26 01:24:17;;;;;;;45.75;26.60;;;;;;;0.51;49.44;100671.55;1782692;80;20994;-52
2021/03/26 01:26:48;;;;;;;36.77;22.13;;;;;;;0.55;49.12;100680.94;1782476;79;21041;-51
2021/03/26 01:29:20;;;;;;;35.48;22.37;;;;;;;0.57;48.94;100678.84;1780980;80;21608;-52
2021/03/26 01:31:52;;;;;;;39.20;22.60;;;;;;;0.58;49.10;100677.00;1782032;80;22000;-51
2021/03/26 01:34:26;;;;;;;31.27;19.82;;;;;;;0.56;49.27;100677.20;1782541;80;21041;-51
2021/03/26 01:36:56;;;;;;;33.00;18.67;;;;;;;0.56;49.54;100679.05;1782353;80;21060;-52
2021/03/26 01:39:27;;;;;;;32.78;20.30;;;;;;;0.48;49.45;100682.77;1782664;80;21001;-53
2021/03/26 01:41:56;;;;;;;37.08;21.57;;;;;;;0.44;49.74;100686.91;1782698;80;21009;-51
2021/03/26 01:44:29;;;;;;;35.95;21.40;;;;;;;0.45;49.42;100685.35;1782836;80;21413;-51
2021/03/26 01:47:12;;;;;;;26.85;15.98;;;;;;;0.48;49.49;100680.89;1782169;80;21061;-51
2021/03/26 01:49:40;;;;;;;28.65;16.62;;;;;;;0.52;49.31;100681.34;1782193;80;21072;-53
2021/03/26 01:52:12;;;;;;;27.17;16.40;;;;;;;0.53;48.49;100683.52;1782055;80;21025;-53
2021/03/26 01:54:55;;;;;;;31.12;17.37;;;;;;;0.64;48.54;100682.45;1845501;76;26669;-52
2021/03/26 01:57:25;;;;;;;27.93;16.10;;;;;;;0.61;48.50;100681.47;1815468;79;20978;-52
2021/03/26 02:00:11;;;;;;;28.05;17.00;;;;;;;0.58;48.51;100681.05;1815469;79;21194;-51
2021/03/26 02:02:40;;;;;;;24.10;14.98;;;;;;;0.56;48.74;100682.61;1814838;79;21096;-52
2021/03/26 02:05:15;;;;;;;24.20;16.02;;;;;;;0.59;48.11;100675.44;1813155;79;21053;-52
2021/03/26 02:07:44;;;;;;;25.40;14.23;;;;;;;0.65;47.50;100682.73;1815033;79;21009;-52
2021/03/26 02:10:13;;;;;;;24.63;14.15;;;;;;;0.70;47.62;100683.51;1814619;79;20998;-51
2021/03/26 02:12:47;;;;;;;24.63;14.98;;;;;;;0.73;47.46;100687.16;1815264;79;21572;-52
2021/03/26 02:15:21;;;;;;;24.72;13.50;;;;;;;0.78;47.32;100689.25;1760150;81;21053;-51
2021/03/26 02:17:50;;;;;;;21.82;13.43;;;;;;;0.83;47.42;100685.42;1815244;79;21018;-52
2021/03/26 02:20:40;;;;;;;22.37;13.13;;;;;;;0.84;47.62;100689.78;1815035;79;21068;-51
2021/03/26 02:23:24;;;;;;;23.85;14.65;;;;;;;0.82;48.04;100690.52;1782835;80;21025;-51
2021/03/26 02:26:03;;;;;;;30.45;15.32;;;;;;;0.75;48.44;100695.06;1782381;80;21207;-51
2021/03/26 02:28:31;;;;;;;23.62;14.15;;;;;;;0.69;48.82;100686.70;1783210;80;21037;-52
2021/03/26 02:31:04;;;;;;;22.82;13.13;;;;;;;0.67;48.99;100696.05;1778676;80;21068;-51
2021/03/26 02:33:39;;;;;;;20.90;12.25;;;;;;;0.63;48.72;100688.88;1782917;80;21187;-51
2021/03/26 02:36:20;;;;;;;29.07;14.68;;;;;;;0.62;48.36;100685.85;1782927;80;21154;-51
2021/03/26 02:39:01;;;;;;;27.15;17.27;;;;;;;0.61;48.73;100692.81;1782539;80;22192;-52
2021/03/26 02:41:43;;;;;;;26.23;16.05;;;;;;;0.56;48.90;100692.07;1783527;80;21284;-51
2021/03/26 02:44:30;;;;;;;27.13;15.58;;;;;;;0.50;49.51;100694.20;1771891;80;21029;-51
2021/03/26 02:47:37;;;;;;;34.43;21.97;;;;;;;0.43;50.19;100691.98;1754701;80;21029;-53
2021/03/26 02:50:42;;;;;;;41.83;23.35;;;;;;;0.36;50.03;100693.32;1773443;80;21536;-51
2021/03/26 02:53:26;;;;;;;44.67;24.50;;;;;;;0.29;50.21;100694.63;1782410;80;21363;-53
2021/03/26 02:56:07;;;;;;;36.40;21.45;;;;;;;0.24;50.45;100694.91;1778699;80;21052;-52
2021/03/26 02:58:47;;;;;;;42.10;25.50;;;;;;;0.22;50.51;100700.50;1778585;80;21061;-51
2021/03/26 03:01:24;;;;;;;42.50;26.93;;;;;;;0.17;50.94;100694.84;1777745;80;21030;-51
2021/03/26 03:04:01;;;;;;;41.73;24.10;;;;;;;0.12;50.98;100702.20;1778687;80;20958;-52
2021/03/26 03:06:54;;;;;;;47.00;28.02;;;;;;;0.09;51.43;100709.36;1778380;80;21660;-51
2021/03/26 03:09:21;;;;;;;56.18;30.43;;;;;;;0.07;51.46;100709.23;1778131;80;21664;-51
2021/03/26 03:12:00;;;;;;;75.45;46.13;;;;;;;0.06;51.33;100708.41;1777907;80;21041;-53
2021/03/26 03:14:55;;;;;;;83.90;47.93;;;;;;;0.06;51.37;100714.30;1753558;80;21041;-52
2021/03/26 03:17:35;;;;;;;61.02;33.35;;;;;;;0.10;51.02;100719.63;1775995;80;20986;-51
2021/03/26 03:20:19;;;;;;;61.65;35.10;;;;;;;0.12;51.39;100722.99;1778110;80;21206;-53
2021/03/26 03:23:12;;;;;;;70.65;39.35;;;;;;;0.07;51.80;100720.03;1778017;79;21037;-51
2021/03/26 03:26:00;;;;;;;77.10;43.05;;;;;;;0.04;52.21;100732.59;1774532;79;28771;-52
2021/03/26 03:28:41;;;;;;;79.07;46.75;;;;;;;-0.06;52.24;100732.42;1746302;82;21122;-51
2021/03/26 03:31:42;;;;;;;69.65;43.30;;;;;;;0.02;51.78;100733.31;1887389;76;28240;-51
2021/03/26 03:34:38;;;;;;;65.95;39.45;;;;;;;-0.02;51.71;100744.48;1858588;77;21301;-52
2021/03/26 03:37:24;;;;;;;58.28;38.55;;;;;;;0.01;51.77;100742.44;1820321;78;21153;-55
2021/03/26 03:40:25;;;;;;;62.35;38.10;;;;;;;-0.05;51.83;100740.00;1820237;78;21643;-52
2021/03/26 03:43:31;;;;;;;62.25;32.75;;;;;;;-0.10;52.13;100756.80;1820271;78;21063;-51
2021/03/26 03:46:21;;;;;;;59.42;33.73;;;;;;;-0.11;52.06;100741.62;1820744;78;20992;-51
2021/03/26 03:49:17;;;;;;;54.95;32.33;;;;;;;-0.07;51.60;100742.05;1820810;78;21082;-52
2021/03/26 03:52:12;;;;;;;53.75;30.10;;;;;;;-0.05;52.01;100744.88;1820971;78;22261;-52
2021/03/26 03:54:58;;;;;;;55.60;31.77;;;;;;;-0.05;51.83;100744.05;1820542;78;21039;-52
2021/03/26 03:57:39;;;;;;;50.12;24.82;;;;;;;-0.04;51.59;100740.33;1819636;78;21106;-52
2021/03/26 04:00:32;;;;;;;43.25;24.72;;;;;;;0.01;51.42;100735.69;1820355;78;21047;-54
2021/03/26 04:03:11;;;;;;;36.95;23.10;;;;;;;0.02;51.26;100743.59;1820550;78;20995;-53
2021/03/26 04:06:13;;;;;;;44.23;22.37;;;;;;;0.09;51.39;100740.95;1820140;78;21381;-51
2021/03/26 04:09:05;;;;;;;45.78;23.92;;;;;;;0.15;51.36;100742.32;1820007;78;21000;-51
2021/03/26 04:11:48;;;;;;;45.05;21.70;;;;;;;0.20;50.83;100735.00;1820538;78;21118;-53
2021/03/26 04:15:01;;;;;;;37.03;21.93;;;;;;;0.23;51.34;100736.45;1819775;78;20999;-51
2021/03/26 04:20:59;;;;;;;39.18;20.97;;;;;;;0.39;51.21;100738.03;1842094;76;28982;-52
2021/03/26 04:23:30;;;;;;;45.03;24.10;;;;;;;0.37;51.36;100745.48;1782735;80;21683;-52
2021/03/26 04:26:32;;;;;;;47.05;23.12;;;;;;;0.42;51.17;100752.50;1766887;80;22227;-53
2021/03/26 04:29:56;;;;;;;53.75;27.62;;;;;;;0.48;51.44;100753.87;1782957;80;21049;-51
2021/03/26 04:32:30;;;;;;;63.85;25.82;;;;;;;0.54;51.62;100759.00;1782241;80;21643;-52
2021/03/26 04:35:01;;;;;;;67.50;28.65;;;;;;;0.67;51.54;100759.59;1782928;80;21057;-52
2021/03/26 04:40:53;;;;;;;59.43;32.83;;;;;;;0.91;51.54;100762.31;1795386;79;27810;-52
2021/03/26 04:43:45;;;;;;;53.23;30.50;;;;;;;0.99;51.36;100759.44;1781347;80;21015;-51
2021/03/26 04:46:32;;;;;;;55.88;27.35;;;;;;;1.07;51.37;100767.06;1780508;80;22181;-52
2021/03/26 04:49:08;;;;;;;118.93;33.15;;;;;;;1.12;51.42;100769.48;1752495;80;21029;-52
2021/03/26 04:51:56;;;;;;;82.27;27.87;;;;;;;1.20;51.49;100772.01;1781065;80;21638;-52
2021/03/26 04:55:01;;;;;;;80.22;28.27;;;;;;;1.25;51.60;100770.05;1743375;80;21010;-52
2021/03/26 04:58:03;;;;;;;76.30;26.90;;;;;;;1.30;51.64;100777.54;1781360;80;20993;-52
2021/03/26 05:00:54;;;;;;;86.72;29.63;;;;;;;1.36;51.64;100791.63;1781603;80;21651;-52
2021/03/26 05:03:34;;;;;;;67.90;24.12;;;;;;;1.44;51.84;100789.25;1781269;80;21056;-51
2021/03/26 05:06:20;;;;;;;44.25;23.32;;;;;;;1.50;51.86;100789.78;1781587;80;21949;-51
2021/03/26 05:09:00;;;;;;;43.92;20.00;;;;;;;1.52;52.04;100790.42;1780971;80;20997;-52
2021/03/26 05:11:37;;;;;;;37.58;20.70;;;;;;;1.58;52.40;100789.59;1781091;80;21005;-52
2021/03/26 05:14:13;;;;;;;44.58;23.00;;;;;;;1.66;52.64;100788.06;1780726;80;21211;-52
2021/03/26 05:17:22;;;;;;;36.98;23.62;;;;;;;1.74;52.70;100789.72;1781055;80;21064;-52
2021/03/26 05:20:12;;;;;;;42.20;21.80;;;;;;;1.81;52.75;100797.88;1756538;80;21052;-51
2021/03/26 05:23:18;;;;;;;39.30;22.07;;;;;;;1.94;53.23;100795.70;1749615;81;21663;-52
2021/03/26 05:26:04;;;;;;;36.90;24.18;;;;;;;2.01;53.65;100796.53;1750558;81;21631;-51
2021/03/26 05:28:45;;;;;;;43.87;23.95;;;;;;;2.08;53.66;100803.61;1748335;81;21194;-52
2021/03/26 05:32:01;;;;;;;48.85;23.40;;;;;;;2.14;53.67;100807.91;1750172;81;21347;-51
2021/03/26 05:34:59;;;;;;;56.18;24.45;;;;;;;2.15;53.82;100800.09;1745894;81;21619;-51
2021/03/26 05:37:43;;;;;;;59.45;24.80;;;;;;;2.23;53.82;100809.38;1749542;81;21044;-52
2021/03/26 05:40:34;;;;;;;42.10;21.17;;;;;;;2.28;53.95;100801.43;1649994;86;21151;-53
2021/03/26 05:43:58;;;;;;;43.98;22.62;;;;;;;2.33;54.00;100805.72;1719459;83;21832;-52
2021/03/26 05:47:18;;;;;;;42.83;24.72;;;;;;;2.49;54.12;100809.87;1845836;75;29098;-52
2021/03/26 05:50:32;;;;;;;38.53;22.62;;;;;;;2.47;54.08;100816.54;1814815;79;20993;-55
2021/03/26 05:53:36;;;;;;;46.60;24.15;;;;;;;2.51;54.07;100812.37;1815848;79;21200;-53
2021/03/26 05:56:26;;;;;;;39.33;22.25;;;;;;;2.58;54.18;100815.91;1810813;79;22101;-52
2021/03/26 05:59:28;;;;;;;44.38;23.40;;;;;;;2.64;54.03;100812.87;1814837;79;21043;-53
2021/03/26 06:02:26;;;;;;;45.70;25.45;;;;;;;2.70;53.98;100821.51;1815092;79;21556;-53
2021/03/26 06:05:39;;;;;;;42.45;23.38;;;;;;;2.78;53.97;100829.43;1815355;78;21014;-52
2021/03/26 06:08:55;;;;;;;44.65;26.33;;;;;;;2.88;53.96;100829.00;1815591;78;21009;-52
2021/03/26 06:12:07;;;;;;;44.08;25.23;;;;;;;2.98;53.92;100826.67;1781536;79;21053;-52
2021/03/26 06:15:26;;;;;;;42.23;23.05;;;;;;;3.16;53.63;100822.42;1916389;73;22702;-54
2021/03/26 06:18:46;;;;;;;43.85;20.80;;;;;;;3.18;53.55;100815.74;1883536;76;21181;-51
2021/03/26 06:22:07;;;;;;;42.27;24.90;;;;;;;3.37;53.07;100818.59;1830954;76;28676;-52
2021/03/26 06:25:28;;;;;;;51.95;27.25;;;;;;;3.42;53.01;100827.76;1782763;80;21025;-52
2021/03/26 06:28:14;;;;;;;51.77;25.85;;;;;;;3.55;52.82;100824.67;1747596;80;21475;-52
2021/03/26 06:31:39;;;;;;;50.80;27.77;;;;;;;3.70;52.52;100817.58;1783278;79;21029;-54
2021/03/26 06:34:45;;;;;;;44.23;26.02;;;;;;;3.88;52.03;100816.85;1778593;80;21706;-54
2021/03/26 06:37:37;;;;;;;42.38;25.85;;;;;;;4.09;51.59;100830.62;1783364;80;21057;-53
2021/03/26 06:40:53;;;;;;;51.08;28.07;;;;;;;4.28;51.14;100832.33;1761425;80;21061;-55
2021/03/26 06:43:50;;;;;;;44.55;26.35;;;;;;;4.43;50.73;100826.57;1783039;79;21021;-53
2021/03/26 06:46:49;;;;;;;43.98;26.70;;;;;;;4.61;50.29;100826.30;1782778;80;21702;-53
2021/03/26 06:49:46;;;;;;;50.90;25.08;;;;;;;4.74;49.85;100828.06;1783013;80;21005;-53
2021/03/26 06:52:33;;;;;;;55.20;29.32;;;;;;;4.88;49.39;100825.50;1783032;79;21179;-53
2021/03/26 06:55:28;;;;;;;45.25;27.93;;;;;;;4.99;49.20;100820.67;1750326;80;20970;-53
2021/03/26 06:58:42;;;;;;;78.83;30.05;;;;;;;5.16;49.05;100829.06;1783060;79;21861;-53
2021/03/26 07:01:53;;;;;;;48.00;25.72;;;;;;;5.32;48.79;100824.89;1782717;79;21002;-53
2021/03/26 07:04:42;;;;;;;47.90;23.92;;;;;;;5.52;48.08;100821.91;1782415;80;21084;-53
2021/03/26 07:07:53;;;;;;;43.33;23.75;;;;;;;5.69;47.98;100826.73;1782508;80;21025;-53
2021/03/26 07:10:37;;;;;;;57.15;26.80;;;;;;;5.82;47.59;100826.53;1783085;80;20978;-53
2021/03/26 07:13:23;;;;;;;56.18;27.35;;;;;;;5.97;47.20;100818.45;1782756;80;21384;-53
2021/03/26 07:16:24;;;;;;;54.05;28.65;;;;;;;6.07;47.20;100820.64;1783452;80;21057;-54
2021/03/26 07:19:21;;;;;;;51.73;25.80;;;;;;;6.25;46.74;100819.74;1783000;80;21195;-54
2021/03/26 07:22:02;;;;;;;40.23;24.15;;;;;;;6.39;46.57;100823.37;1782879;79;21005;-54
2021/03/26 07:24:57;;;;;;;40.45;23.27;;;;;;;6.56;46.03;100822.68;1782767;80;21076;-54
2021/03/26 07:27:52;;;;;;;46.58;27.30;;;;;;;6.68;45.54;100826.77;1782990;80;21369;-54
2021/03/26 07:30:32;;;;;;;52.17;28.40;;;;;;;6.84;45.31;100830.67;1782790;80;21009;-54
2021/03/26 07:33:21;;;;;;;46.95;24.75;;;;;;;7.00;45.00;100827.73;1782584;80;21096;-53
2021/03/26 07:36:17;;;;;;;47.55;21.45;;;;;;;7.10;44.64;100826.59;1749112;80;21057;-53
2021/03/26 07:39:11;;;;;;;38.33;22.17;;;;;;;7.25;44.63;100826.92;1782598;80;21061;-53
2021/03/26 07:42:12;;;;;;;37.13;21.57;;;;;;;7.47;44.13;100829.55;1781732;80;21396;-53
2021/03/26 07:45:19;;;;;;;46.37;20.05;;;;;;;7.66;44.06;100830.17;1778362;79;21103;-54
2021/03/26 07:48:17;;;;;;;44.35;21.75;;;;;;;7.86;43.95;100833.31;1782537;78;21009;-54
2021/03/26 07:51:11;;;;;;;43.52;20.43;;;;;;;8.09;43.79;100835.09;1781752;78;20976;-52
2021/03/26 07:54:08;;;;;;;47.93;20.57;;;;;;;8.30;43.47;100832.69;1734411;80;21013;-54
2021/03/26 07:57:08;;;;;;;30.85;18.55;;;;;;;8.48;43.34;100831.66;1716332;81;21216;-55
2021/03/26 08:00:08;;;;;;;37.15;19.25;;;;;;;8.70;43.01;100836.36;1720714;81;20986;-54
2021/03/26 08:02:59;;;;;;;34.58;20.60;;;;;;;8.93;43.06;100840.28;1723453;82;21571;-56
2021/03/26 08:05:31;;;;;;;61.10;20.57;;;;;;;9.14;42.83;100832.33;1717699;82;20937;-54
2021/03/26 08:08:06;;;;;;;;;;;;;;;9.33;42.51;100839.69;1730289;81;20961;-54
2021/03/26 08:10:47;;;;;;;49.45;20.85;;;;;;;9.50;42.64;100842.37;1748106;80;21203;-53
2021/03/26 08:13:46;;;;;;;48.13;20.65;;;;;;;9.64;42.87;100848.30;1736116;80;21635;-54
2021/03/26 08:16:52;;;;;;;35.17;17.75;;;;;;;9.78;42.98;100850.92;1730229;80;21035;-54
2021/03/26 08:19:52;;;;;;;27.07;17.30;;;;;;;9.88;42.55;100851.58;1733737;80;21475;-54
2021/03/26 08:22:27;;;;;;;66.37;18.75;;;;;;;9.97;42.27;100849.19;1701191;82;21048;-54
2021/03/26 08:25:15;;;;;;;35.40;17.25;;;;;;;10.07;42.07;100849.84;1720643;81;21247;-55
2021/03/26 08:28:01;;;;;;;29.82;16.07;;;;;;;10.13;42.09;100852.91;1729872;81;20993;-53
2021/03/26 08:30:47;;;;;;;33.40;16.57;;;;;;;10.31;41.93;100858.02;1769386;79;21014;-56
2021/03/26 08:33:48;;;;;;;34.30;18.05;;;;;;;10.54;41.73;100850.55;1779180;79;20972;-55
2021/03/26 08:36:35;;;;;;;29.27;17.55;;;;;;;10.70;41.47;100854.23;1759556;79;21617;-56
2021/03/26 08:39:30;;;;;;;33.20;18.17;;;;;;;10.82;40.73;100856.82;1774157;79;21187;-55
2021/03/26 08:45:44;;;;;;;31.00;18.30;;;;;;;11.03;40.67;100853.10;1786151;78;22803;-55
2021/03/26 08:48:29;;;;;;;28.75;17.27;;;;;;;11.15;40.15;100849.31;1761426;79;21017;-54
2021/03/26 08:51:22;;;;;;;36.60;15.95;;;;;;;11.35;39.85;100857.66;1759962;79;21358;-56
2021/03/26 08:54:11;;;;;;;31.10;13.70;;;;;;;11.55;39.68;100857.47;1765002;79;21450;-54
2021/03/26 08:57:13;;;;;;;43.38;16.20;;;;;;;11.84;38.98;100861.95;1763763;79;21029;-54
2021/03/26 09:00:29;;;;;;;27.45;13.68;;;;;;;12.09;38.20;100863.97;1760345;80;20972;-54
2021/03/26 09:03:27;;;;;;;27.58;15.20;;;;;;;12.26;38.10;100857.37;1763202;79;20970;-55
2021/03/26 09:06:23;;;;;;;26.48;14.98;;;;;;;12.57;37.81;100864.27;1758149;79;21449;-54
2021/03/26 09:09:30;;;;;;;24.85;12.50;;;;;;;12.85;36.97;100857.92;1756446;79;21021;-55
2021/03/26 09:12:27;;;;;;;22.82;12.53;;;;;;;13.10;36.70;100869.44;1758360;79;21048;-55
2021/03/26 09:15:15;;;;;;;;;;;;;;;13.43;35.63;100863.86;1761476;79;20998;-55
2021/03/26 09:17:57;;;;;;;20.10;12.35;;;;;;;13.65;35.02;100860.72;1763125;79;20191;-56
2021/03/26 09:21:04;;;;;;;23.42;13.13;;;;;;;13.75;34.79;100861.22;1758028;79;21804;-56
2021/03/26 09:23:55;;;;;;;21.52;12.25;;;;;;;13.87;34.50;100865.58;1764952;79;21017;-55
2021/03/26 09:26:53;;;;;;;37.25;13.00;;;;;;;14.04;33.60;100868.78;1749119;79;20997;-55
2021/03/26 09:30:02;;;;;;;22.93;11.63;;;;;;;14.13;33.37;100867.08;1687481;80;21002;-54
2021/03/26 09:32:46;;;;;;;20.50;11.63;;;;;;;14.23;33.18;100866.19;1766678;79;20965;-55
2021/03/26 09:35:49;;;;;;;23.10;10.82;;;;;;;14.46;32.44;100872.92;1764283;79;21402;-54
2021/03/26 09:38:30;;;;;;;19.55;10.23;;;;;;;14.57;31.65;100864.53;1690215;83;21041;-55
2021/03/26 09:41:26;;;;;;;16.23;10.45;;;;;;;14.88;31.36;100862.91;1854584;75;22735;-54
2021/03/26 09:44:07;;;;;;;18.87;12.15;;;;;;;15.09;31.03;100870.42;1830047;76;21051;-55
2021/03/26 09:47:14;;;;;;;25.27;13.35;;;;;;;15.35;30.67;100871.80;1826464;76;20977;-54
2021/03/26 09:50:09;;;;;;;23.83;12.53;;;;;;;15.70;30.59;100875.79;1783158;78;22735;-55
2021/03/26 09:52:39;;;;;;;23.95;11.30;;;;;;;15.81;30.16;100872.37;1714482;79;20970;-54
2021/03/26 09:55:33;;;;;;;58.52;13.83;;;;;;;15.98;28.80;100882.38;1762466;79;21439;-54
2021/03/26 09:58:46;;;;;;;16.32;9.03;;;;;;;16.06;29.11;100879.48;1761345;79;21564;-54
2021/03/26 10:01:27;;;;;;;41.10;11.05;;;;;;;16.17;28.65;100878.20;1762460;79;20989;-56
2021/03/26 10:04:06;;;;;;;23.57;8.98;;;;;;;16.34;28.35;100879.05;1752409;79;20954;-56
2021/03/26 10:06:51;;;;;;;16.77;9.13;;;;;;;16.45;28.01;100874.19;1752565;80;20972;-55
2021/03/26 10:12:18;;;;;;;27.42;9.13;;;;;;;16.69;26.37;100873.22;1719220;81;20989;-54
2021/03/26 10:14:59;;;;;;;28.60;9.18;;;;;;;16.85;26.13;100876.00;1773160;80;20995;-53
2021/03/26 10:17:51;;;;;;;19.42;7.90;;;;;;;16.92;25.73;100875.06;1764914;80;20985;-54
2021/03/26 10:20:47;;;;;;;18.73;9.78;;;;;;;16.82;25.52;100875.22;1753961;80;21026;-55
2021/03/26 10:23:45;;;;;;;25.20;7.83;;;;;;;16.71;26.04;100876.53;1713750;81;21280;-55
2021/03/26 10:26:26;;;;;;;21.77;8.08;;;;;;;16.71;25.92;100879.30;1733934;81;21172;-54
2021/03/26 10:29:23;;;;;;;30.27;8.80;;;;;;;16.90;25.83;100877.87;1735822;81;21002;-53
2021/03/26 10:31:54;;;;;;;17.92;7.95;;;;;;;17.10;25.66;100879.45;1739054;81;21569;-54
2021/03/26 10:34:34;;;;;;;22.98;8.38;;;;;;;17.25;25.14;100876.39;1731505;81;21274;-54
2021/03/26 10:37:51;;;;;;;33.78;9.23;;;;;;;17.36;25.22;100866.46;1729870;81;21210;-53
2021/03/26 10:40:53;;;;;;;17.85;8.05;;;;;;;17.44;24.75;100865.75;1731939;81;21128;-54
2021/03/26 10:43:26;;;;;;;31.80;9.85;;;;;;;17.61;24.62;100865.13;1735307;81;21031;-55
2021/03/26 10:46:23;;;;;;;14.90;8.90;;;;;;;17.69;24.43;100868.56;1740799;81;21434;-54
2021/03/26 10:49:01;;;;;;;17.00;6.25;;;;;;;17.86;23.96;100868.47;1737164;81;21127;-53
2021/03/26 10:51:48;;;;;;;11.68;6.75;;;;;;;17.87;23.88;100867.34;1729702;81;21596;-52
2021/03/26 10:54:37;;;;;;;14.18;7.40;;;;;;;17.92;24.15;100866.69;1739291;81;21569;-53
2021/03/26 10:57:39;;;;;;;21.00;8.25;;;;;;;18.15;24.04;100868.13;1737464;81;21018;-55
2021/03/26 11:00:41;;;;;;;16.93;7.40;;;;;;;18.23;23.44;100863.77;1735551;81;20970;-54
2021/03/26 11:03:44;;;;;;;14.55;7.42;;;;;;;18.12;23.67;100866.79;1737677;81;21548;-55
2021/03/26 11:06:42;;;;;;;19.98;7.42;;;;;;;18.22;23.90;100864.34;1847527;75;22811;-55
2021/03/26 11:09:14;;;;;;;14.65;7.97;;;;;;;18.31;24.06;100869.39;1789577;77;20961;-55
2021/03/26 11:12:14;;;;;;;22.10;7.60;;;;;;;18.46;23.56;100864.03;1784956;77;22756;-51
2021/03/26 11:15:07;;;;;;;38.42;8.73;;;;;;;18.59;23.64;100862.88;1798789;78;21609;-54
2021/03/26 11:18:04;;;;;;;19.62;6.45;;;;;;;18.86;23.22;100865.25;1817977;76;21032;-53
2021/03/26 11:20:58;;;;;;;20.43;8.18;;;;;;;18.86;23.35;100869.43;1827348;76;21024;-55
2021/03/26 11:23:28;;;;;;;14.70;6.00;;;;;;;18.93;23.29;100863.70;1813863;76;20933;-54
2021/03/26 11:26:35;;;;;;;17.35;6.30;;;;;;;19.14;23.48;100862.55;1817737;77;22165;-54
2021/03/26 11:29:21;;;;;;;14.33;6.12;;;;;;;19.32;23.28;100862.06;1827625;76;21086;-54
2021/03/26 11:32:24;;;;;;;12.23;5.60;;;;;;;19.53;22.90;100862.86;1811388;76;20975;-55
2021/03/26 11:35:05;;;;;;;11.57;6.58;;;;;;;19.59;23.36;100861.58;1825298;76;20962;-55
2021/03/26 11:38:01;;;;;;;31.17;15.78;;;;;;;19.76;23.03;100864.14;1825290;76;21369;-54
2021/03/26 11:40:57;;;;;;;23.30;5.67;;;;;;;19.77;22.91;100858.82;1818699;76;20977;-55
2021/03/26 11:43:37;;;;;;;13.10;4.58;;;;;;;19.67;23.03;100862.15;1823185;76;21001;-55
2021/03/26 11:46:08;;;;;;;17.62;5.28;;;;;;;19.68;23.26;100858.23;1821158;76;20959;-54
2021/03/26 11:48:56;;;;;;;14.47;7.00;;;;;;;19.84;23.44;100857.22;1830218;76;20950;-53
2021/03/26 11:51:39;;;;;;;70.28;8.05;;;;;;;20.00;23.11;100855.34;1821123;76;20946;-55
2021/03/26 11:54:33;;;;;;;8.83;4.50;;;;;;;20.19;23.17;100854.46;1822487;76;22317;-54
2021/03/26 11:57:44;;;;;;;16.97;7.22;;;;;;;20.24;23.26;100845.09;1828848;76;21037;-54
2021/03/26 12:00:27;;;;;;;13.32;4.92;;;;;;;20.33;22.85;100850.67;1819763;76;20985;-57
2021/03/26 12:03:35;;;;;;;6.75;5.12;;;;;;;20.35;22.72;100845.59;1814210;76;20989;-53
2021/03/26 12:06:26;;;;;;;18.85;4.97;;;;;;;20.46;22.48;100848.84;1822056;76;21632;-53
2021/03/26 12:09:13;;;;;;;29.25;6.03;;;;;;;20.52;22.45;100839.17;1831315;76;22904;-54
2021/03/26 12:12:13;;;;;;;14.85;5.80;;;;;;;20.61;22.34;100838.57;1773866;78;21108;-55
2021/03/26 12:15:10;;;;;;;12.80;4.60;;;;;;;20.75;22.41;100845.95;1802495;78;21009;-54
2021/03/26 12:17:50;;;;;;;23.18;4.97;;;;;;;20.77;22.55;100838.08;1783406;78;20965;-53
2021/03/26 12:20:30;;;;;;;15.95;4.65;;;;;;;20.83;22.45;100835.34;1799505;78;20941;-53
2021/03/26 12:23:19;;;;;;;7.60;3.75;;;;;;;20.70;22.54;100830.20;1773300;79;21575;-53
2021/03/26 12:25:56;;;;;;;12.70;3.80;;;;;;;20.68;22.85;100832.52;1766507;79;21084;-55
2021/03/26 12:28:57;;;;;;;;;;;;;;;20.76;22.62;100828.05;1777924;79;21001;-54
2021/03/26 12:31:45;;;;;;;23.07;7.67;;;;;;;20.93;22.46;100829.39;1770264;79;20641;-54
2021/03/26 12:34:46;;;;;;;11.30;5.33;;;;;;;20.97;22.56;100831.75;1772804;79;21132;-54
2021/03/26 12:37:19;;;;;;;15.32;5.92;;;;;;;21.06;22.20;100824.18;1727501;79;21282;-52
2021/03/26 12:39:49;;;;;;;13.08;4.42;;;;;;;21.19;22.37;100825.11;1768234;79;21575;-53
2021/03/26 12:42:24;;;;;;;14.47;3.95;;;;;;;21.18;22.18;100826.84;1762279;79;22202;-53
2021/03/26 12:45:06;;;;;;;8.40;3.85;;;;;;;21.15;22.45;100819.11;1734868;79;21044;-54
2021/03/26 12:47:53;;;;;;;21.17;3.72;;;;;;;21.20;22.29;100821.73;1774610;79;21076;-54
2021/03/26 12:50:27;;;;;;;16.40;3.65;;;;;;;21.16;21.90;100812.38;1774745;79;21132;-54
2021/03/26 12:53:21;;;;;;;6.92;2.85;;;;;;;21.03;22.40;100811.45;1744254;79;21156;-54
2021/03/26 12:56:24;;;;;;;23.27;5.28;;;;;;;21.13;22.00;100814.45;1764546;79;21087;-54
2021/03/26 12:59:34;;;;;;;7.30;3.30;;;;;;;21.13;21.92;100813.05;1769564;79;21010;-54
2021/03/26 13:02:28;;;;;;;22.15;4.92;;;;;;;21.13;21.81;100807.47;1761043;79;21072;-54
2021/03/26 13:05:26;;;;;;;13.13;4.75;;;;;;;20.96;22.29;100802.19;1733631;79;21585;-54
2021/03/26 13:08:09;;;;;;;9.98;4.08;;;;;;;20.74;22.15;100798.27;1767245;79;21048;-55